createdAt,value
2023-03-08T06:21:32.492Z,11.77
2023-03-08T06:24:07.497Z,12.57
2023-03-08T06:26:35.226Z,12.10
2023-03-08T06:29:03.395Z,10.00
2023-03-08T06:31:32.617Z,11.50
2023-03-08T06:34:02.399Z,11.30
2023-03-08T06:36:30.190Z,10.73
2023-03-08T06:38:59.669Z,10.33
2023-03-08T06:41:27.061Z,10.83
2023-03-08T06:43:57.932Z,11.50
2023-03-08T06:46:25.306Z,11.07
2023-03-08T06:48:54.076Z,9.23
2023-03-08T06:51:21.618Z,9.40
2023-03-08T06:53:50.436Z,9.77
2023-03-08T06:56:21.410Z,9.63
2023-03-08T06:58:48.787Z,10.03
2023-03-08T07:01:16.375Z,9.03
2023-03-08T07:03:45.530Z,10.03
2023-03-08T07:06:13.128Z,9.57
2023-03-08T07:08:40.521Z,9.67
2023-03-08T07:11:11.486Z,10.13
2023-03-08T07:13:38.818Z,9.37
2023-03-08T07:16:09.977Z,9.03
2023-03-08T07:18:37.379Z,9.40
2023-03-08T07:21:04.893Z,9.30
2023-03-08T07:23:32.366Z,8.00
2023-03-08T07:25:59.688Z,8.53
2023-03-08T07:28:27.007Z,8.53
2023-03-08T07:30:54.632Z,8.30
2023-03-08T07:33:22.159Z,8.73
2023-03-08T07:35:49.954Z,9.07
2023-03-08T07:38:17.534Z,8.60
2023-03-08T07:40:45.081Z,9.27
2023-03-08T07:43:12.639Z,7.97
2023-03-08T07:45:53.733Z,8.13
2023-03-08T07:48:20.964Z,8.13
2023-03-08T07:50:48.956Z,8.73
2023-03-08T07:53:16.276Z,8.10
2023-03-08T07:55:43.801Z,9.10
2023-03-08T07:58:11.050Z,8.47
2023-03-08T08:00:38.410Z,8.30
2023-03-08T08:03:05.771Z,7.80
2023-03-08T08:05:33.145Z,7.47
2023-03-08T08:08:00.445Z,8.20
2023-03-08T08:10:27.713Z,8.40
2023-03-08T08:12:55.008Z,7.50
2023-03-08T08:15:25.287Z,8.77
2023-03-08T08:17:53.183Z,8.70
2023-03-08T08:20:20.564Z,7.50
2023-03-08T08:22:47.875Z,8.03
2023-03-08T08:25:15.147Z,7.50
2023-03-08T08:27:42.427Z,6.97
2023-03-08T08:30:10.068Z,7.43
2023-03-08T08:32:37.422Z,7.00
2023-03-08T08:35:04.936Z,8.27
2023-03-08T08:37:32.756Z,6.90
2023-03-08T08:40:00.127Z,6.20
2023-03-08T08:42:27.453Z,5.80
2023-03-08T08:44:54.886Z,7.37
2023-03-08T08:47:22.178Z,7.90
2023-03-08T08:49:49.438Z,6.40
2023-03-08T08:52:16.814Z,7.03
2023-03-08T08:54:44.176Z,7.80
2023-03-08T08:57:11.614Z,7.33
2023-03-08T08:59:39.277Z,7.40
2023-03-08T09:02:06.844Z,6.77
2023-03-08T09:04:34.186Z,7.00
2023-03-08T09:07:01.643Z,7.27
2023-03-08T09:09:28.905Z,6.20
2023-03-08T09:11:56.278Z,6.27
2023-03-08T09:14:24.119Z,5.90
2023-03-08T09:16:52.676Z,5.57
2023-03-08T09:19:20.350Z,5.77
2023-03-08T09:21:47.678Z,5.30
2023-03-08T09:24:15.033Z,5.13
2023-03-08T09:26:42.318Z,4.80
2023-03-08T09:29:11.467Z,4.93
2023-03-08T09:31:38.900Z,5.20
2023-03-08T09:34:09.203Z,5.60
2023-03-08T09:36:39.666Z,5.67
2023-03-08T09:39:08.934Z,5.60
2023-03-08T09:41:45.428Z,5.90
2023-03-08T09:44:31.765Z,6.00
2023-03-08T09:47:11.403Z,5.00
2023-03-08T09:49:39.895Z,5.10
2023-03-08T09:52:07.221Z,4.53
2023-03-08T09:54:35.450Z,5.10
2023-03-08T09:57:03.829Z,5.23
2023-03-08T09:59:40.912Z,5.30
2023-03-08T10:02:14.213Z,5.23
2023-03-08T10:04:44.527Z,5.00
2023-03-08T10:07:50.605Z,5.00
2023-03-08T10:10:17.890Z,5.67
2023-03-08T10:12:50.730Z,5.40
2023-03-08T10:15:20.498Z,4.90
2023-03-08T10:17:54.208Z,5.17
2023-03-08T10:20:21.757Z,4.60
2023-03-08T10:22:52.314Z,4.90
2023-03-08T10:25:24.542Z,4.90
2023-03-08T10:27:56.137Z,4.80
2023-03-08T10:30:26.819Z,4.80
2023-03-08T10:32:59.659Z,4.53
2023-03-08T10:35:38.054Z,4.00
2023-03-08T10:38:06.558Z,4.20
2023-03-08T10:40:33.855Z,4.47
2023-03-08T10:43:05.468Z,4.93
2023-03-08T10:45:33.688Z,4.87
2023-03-08T10:48:05.388Z,5.20
2023-03-08T10:50:35.461Z,4.70
2023-03-08T10:53:16.738Z,5.27
2023-03-08T10:55:53.360Z,5.30
2023-03-08T10:58:46.715Z,4.60
2023-03-08T11:01:28.092Z,4.60
2023-03-08T11:04:15.809Z,4.87
2023-03-08T11:06:43.109Z,4.80
2023-03-08T11:09:28.013Z,4.80
2023-03-08T11:11:56.531Z,4.80
2023-03-08T11:14:24.607Z,4.70
2023-03-08T11:17:00.360Z,4.20
2023-03-08T11:19:32.856Z,4.30
2023-03-08T11:22:02.204Z,5.20
2023-03-08T11:24:35.720Z,4.60
2023-03-08T11:27:32.665Z,5.23
2023-03-08T11:30:02.947Z,4.63
2023-03-08T11:32:39.746Z,4.27
2023-03-08T11:35:07.272Z,4.20
2023-03-08T11:37:37.454Z,4.87
2023-03-08T11:40:19.889Z,4.67
2023-03-08T11:42:47.197Z,5.30
2023-03-08T11:45:17.760Z,4.70
2023-03-08T11:48:03.941Z,4.10
2023-03-08T11:50:33.950Z,4.77
2023-03-08T11:53:17.759Z,4.63
2023-03-08T11:56:00.310Z,4.37
2023-03-08T11:58:44.351Z,4.37
2023-03-08T12:01:37.672Z,4.40
2023-03-08T12:04:09.048Z,4.40
2023-03-08T12:06:40.786Z,4.17
2023-03-08T12:09:08.361Z,4.37
2023-03-08T12:11:40.165Z,4.00
2023-03-08T12:14:13.949Z,3.67
2023-03-08T12:16:48.251Z,4.30
2023-03-08T12:19:15.842Z,4.80
2023-03-08T12:21:51.943Z,4.20
2023-03-08T12:24:28.053Z,4.70
2023-03-08T12:27:27.743Z,5.80
2023-03-08T12:30:14.004Z,4.87
2023-03-08T12:32:42.600Z,4.90
2023-03-08T12:35:28.362Z,4.73
2023-03-08T12:38:27.970Z,4.17
2023-03-08T12:40:55.845Z,4.37
2023-03-08T12:43:22.667Z,4.77
2023-03-08T12:46:06.498Z,4.47
2023-03-08T12:48:39.373Z,4.87
2023-03-08T12:51:11.985Z,4.50
2023-03-08T12:53:52.720Z,5.53
2023-03-08T12:56:22.552Z,5.10
2023-03-08T12:58:55.952Z,5.50
2023-03-08T13:01:34.648Z,4.93
2023-03-08T13:04:04.385Z,5.20
2023-03-08T13:06:53.988Z,5.20
2023-03-08T13:09:31.536Z,5.97
2023-03-08T13:12:16.494Z,5.97
2023-03-08T13:15:22.608Z,5.10
2023-03-08T13:18:06.306Z,5.38
2023-03-08T13:21:15.362Z,4.83
2023-03-08T13:23:57.952Z,4.43
2023-03-08T13:26:49.958Z,4.63
2023-03-08T13:29:19.114Z,5.13
2023-03-08T13:31:47.850Z,5.37
2023-03-08T13:34:34.617Z,4.83
2023-03-08T13:37:03.822Z,5.23
2023-03-08T13:39:32.079Z,5.30
2023-03-08T13:42:11.835Z,6.00
2023-03-08T13:44:39.212Z,5.90
2023-03-08T13:47:26.381Z,5.60
2023-03-08T13:49:56.953Z,5.90
2023-03-08T13:52:44.342Z,6.30
2023-03-08T13:55:37.781Z,5.70
2023-03-08T13:58:05.449Z,5.40
2023-03-08T14:00:35.429Z,5.63
2023-03-08T14:03:07.866Z,6.43
2023-03-08T14:05:42.740Z,6.10
2023-03-08T14:08:21.716Z,6.17
2023-03-08T14:11:05.058Z,6.57
2023-03-08T14:13:36.189Z,7.00
2023-03-08T14:16:08.346Z,6.60
2023-03-08T14:18:40.862Z,6.70
2023-03-08T14:21:14.754Z,7.10
2023-03-08T14:23:48.073Z,6.60
2023-03-08T14:26:34.949Z,6.90
2023-03-08T14:29:11.407Z,7.33
2023-03-08T14:31:41.592Z,6.53
2023-03-08T14:34:29.098Z,7.20
2023-03-08T14:36:58.297Z,7.10
2023-03-08T14:39:27.380Z,7.00
2023-03-08T14:41:55.698Z,6.70
2023-03-08T14:44:28.289Z,6.70
2023-03-08T14:47:01.157Z,6.77
2023-03-08T14:49:29.207Z,6.83
2023-03-08T14:51:56.262Z,6.80
2023-03-08T14:54:29.674Z,6.30
2023-03-08T14:56:56.795Z,7.03
2023-03-08T14:59:27.850Z,7.00
2023-03-08T15:01:55.513Z,7.33
2023-03-08T15:04:25.630Z,7.33
2023-03-08T15:06:54.618Z,7.63
2023-03-08T15:09:22.620Z,7.33
2023-03-08T15:11:52.561Z,8.00
2023-03-08T15:14:19.480Z,7.70
2023-03-08T15:16:46.564Z,7.77
2023-03-08T15:19:14.076Z,7.27
2023-03-08T15:21:42.123Z,10.90
2023-03-08T15:24:16.090Z,7.90
2023-03-08T15:26:44.026Z,7.70
2023-03-08T15:29:26.561Z,8.07
2023-03-08T15:31:54.000Z,7.73
2023-03-08T15:34:21.709Z,7.80
2023-03-08T15:36:50.082Z,7.30
2023-03-08T15:39:18.291Z,7.60
2023-03-08T15:41:45.599Z,7.53
2023-03-08T15:44:12.904Z,7.40
2023-03-08T15:46:39.867Z,8.20
2023-03-08T15:49:07.071Z,8.57
2023-03-08T15:51:36.032Z,8.27
2023-03-08T15:54:04.302Z,8.17
2023-03-08T15:56:31.216Z,7.90
2023-03-08T15:58:58.366Z,7.33
2023-03-08T16:01:26.922Z,7.77
2023-03-08T16:03:55.698Z,7.03
2023-03-08T16:06:23.401Z,6.80
2023-03-08T16:08:50.629Z,6.90
2023-03-08T17:02:49.785Z,7.93
2023-03-08T17:05:17.113Z,7.87
2023-03-08T17:07:47.018Z,7.20
2023-03-08T17:10:14.414Z,7.47
2023-03-08T17:12:41.813Z,7.87
2023-03-08T17:15:10.947Z,6.87
2023-03-08T17:17:41.401Z,6.80
2023-03-08T17:20:09.182Z,8.47
2023-03-08T17:22:36.518Z,8.00
2023-03-08T17:25:03.978Z,8.60
2023-03-08T17:27:31.383Z,8.80
2023-03-08T17:30:00.707Z,8.90
2023-03-08T17:32:28.274Z,9.20
2023-03-08T17:34:55.571Z,10.13
2023-03-08T17:37:23.086Z,10.20
2023-03-08T17:39:50.635Z,9.37
2023-03-08T17:42:18.268Z,9.50
2023-03-08T17:44:45.657Z,9.67
2023-03-08T17:47:13.973Z,9.87
2023-03-08T17:49:41.410Z,9.97
2023-03-08T17:52:09.788Z,9.70
2023-03-08T17:54:37.117Z,10.17
2023-03-08T17:57:04.615Z,9.50
2023-03-08T17:59:31.884Z,9.30
2023-03-08T18:01:59.251Z,9.70
2023-03-08T18:04:26.575Z,9.07
2023-03-08T18:06:53.907Z,9.53
2023-03-08T18:09:21.322Z,9.63
2023-03-08T18:11:50.065Z,9.30
2023-03-08T18:14:17.410Z,8.90
2023-03-08T18:16:45.130Z,9.20
2023-03-08T18:19:12.429Z,8.53
2023-03-08T18:21:41.311Z,9.40
2023-03-08T18:24:11.117Z,9.00
2023-03-08T18:26:38.387Z,10.10
2023-03-08T18:29:05.652Z,15.10
2023-03-08T18:31:35.289Z,10.47
2023-03-08T18:34:03.118Z,10.13
2023-03-08T18:36:30.519Z,9.63
2023-03-08T18:38:57.951Z,9.37
2023-03-08T18:41:27.211Z,10.00
2023-03-08T18:43:55.023Z,9.87
2023-03-08T18:46:28.553Z,9.90
2023-03-08T18:49:00.821Z,10.53
2023-03-08T18:51:29.001Z,10.80
2023-03-08T18:53:56.814Z,10.83
2023-03-08T18:56:25.821Z,11.60
2023-03-08T18:58:53.585Z,10.27
2023-03-08T19:01:21.038Z,10.27
2023-03-08T19:03:48.751Z,10.70
2023-03-08T19:06:16.032Z,10.50
2023-03-08T19:08:43.692Z,19.37
2023-03-08T19:11:18.428Z,12.73
2023-03-08T19:13:46.313Z,11.77
2023-03-08T19:16:18.633Z,12.70
2023-03-08T19:18:46.382Z,13.20
2023-03-08T19:21:24.897Z,13.80
2023-03-08T19:23:52.205Z,14.50
2023-03-08T19:26:36.310Z,15.97
2023-03-08T19:29:03.745Z,13.67
2023-03-08T19:31:31.288Z,13.07
2023-03-08T19:33:59.168Z,13.93
2023-03-08T19:36:26.440Z,13.67
2023-03-08T19:38:55.345Z,12.53
2023-03-08T19:41:22.795Z,13.80
2023-03-08T19:43:50.071Z,14.27
2023-03-08T19:46:17.991Z,14.00
2023-03-08T19:48:46.165Z,13.37
2023-03-08T19:51:17.839Z,12.97
2023-03-08T19:53:45.548Z,11.07
2023-03-08T19:56:17.048Z,11.77
2023-03-08T19:58:45.004Z,12.67
2023-03-08T20:01:13.297Z,13.90
2023-03-08T20:03:40.735Z,12.23
2023-03-08T20:06:08.260Z,11.47
2023-03-08T20:08:36.236Z,12.33
2023-03-08T20:11:04.087Z,12.00
2023-03-08T20:13:31.839Z,11.87
2023-03-08T20:15:59.226Z,10.97
2023-03-08T20:18:26.555Z,11.10
2023-03-08T20:20:54.013Z,11.50
2023-03-08T20:23:20.961Z,12.10
2023-03-08T20:25:47.861Z,11.67
2023-03-08T20:28:14.801Z,11.47
2023-03-08T20:30:41.793Z,11.87
2023-03-08T20:33:10.778Z,11.87
2023-03-08T20:35:38.270Z,10.47
2023-03-08T20:38:05.304Z,12.60
2023-03-08T20:40:32.382Z,12.50
2023-03-08T20:43:00.798Z,15.03
2023-03-08T20:45:29.042Z,13.47
2023-03-08T20:47:57.500Z,13.00
2023-03-08T20:50:26.590Z,13.90
2023-03-08T20:52:54.227Z,15.53
2023-03-08T20:55:21.711Z,15.03
2023-03-08T20:57:49.014Z,17.10
2023-03-08T21:00:16.525Z,18.40
2023-03-08T21:02:43.835Z,17.10
2023-03-08T21:05:11.571Z,13.87
2023-03-08T21:07:38.934Z,13.67
2023-03-08T21:10:06.271Z,13.60
2023-03-08T21:12:33.648Z,14.17
2023-03-08T21:15:01.505Z,14.33
2023-03-08T21:17:29.907Z,13.67
2023-03-08T21:19:57.419Z,13.20
2023-03-08T21:22:25.057Z,13.03
2023-03-08T21:24:52.556Z,13.03
2023-03-08T21:27:19.963Z,14.97
2023-03-08T21:29:47.334Z,15.33
2023-03-08T21:32:14.698Z,13.83
2023-03-08T21:34:42.031Z,13.37
2023-03-08T21:37:09.500Z,14.17
2023-03-08T21:39:36.812Z,14.80
2023-03-08T21:42:04.425Z,17.90
2023-03-08T21:44:32.194Z,17.63
2023-03-08T21:46:59.644Z,18.00
2023-03-08T21:49:27.858Z,17.37
2023-03-08T21:51:56.370Z,17.70
2023-03-08T21:54:24.340Z,18.00
2023-03-08T21:56:51.983Z,18.10
2023-03-08T21:59:19.528Z,17.90
2023-03-08T22:01:48.890Z,18.00
2023-03-08T22:04:18.700Z,18.60
2023-03-08T22:06:46.847Z,16.80
2023-03-08T22:09:14.175Z,17.10
2023-03-08T22:11:41.446Z,17.47
2023-03-08T22:14:08.723Z,18.97
2023-03-08T22:16:41.931Z,16.60
2023-03-08T22:19:10.629Z,15.17
2023-03-08T22:21:38.128Z,14.10
2023-03-08T22:24:05.511Z,13.50
2023-03-08T22:26:33.114Z,14.20
2023-03-08T22:29:00.670Z,13.57
2023-03-08T22:31:29.642Z,12.53
2023-03-08T22:33:57.313Z,11.47
2023-03-08T22:36:24.949Z,11.17
2023-03-08T22:38:52.261Z,10.57
2023-03-08T22:41:23.973Z,10.63
2023-03-08T22:43:51.614Z,10.47
2023-03-08T22:46:22.229Z,10.70
2023-03-08T22:48:51.686Z,10.37
2023-03-08T22:51:20.334Z,10.90
2023-03-08T22:53:47.655Z,11.73
2023-03-08T22:56:19.819Z,11.40
2023-03-08T22:58:47.194Z,12.27
2023-03-08T23:01:15.708Z,12.23
2023-03-08T23:03:43.630Z,12.33
2023-03-08T23:06:11.068Z,12.27
2023-03-08T23:08:38.741Z,13.37
2023-03-08T23:11:06.810Z,13.67
2023-03-08T23:13:35.021Z,13.37
2023-03-08T23:16:02.624Z,13.97
2023-03-08T23:18:30.006Z,13.57
2023-03-08T23:20:57.374Z,14.30
2023-03-08T23:23:25.289Z,14.30
2023-03-08T23:25:52.950Z,14.53
2023-03-08T23:28:20.915Z,15.40
2023-03-08T23:30:48.385Z,14.57
2023-03-08T23:33:15.848Z,15.13
2023-03-08T23:35:43.312Z,14.77
2023-03-08T23:38:11.299Z,15.10
2023-03-08T23:40:40.021Z,14.53
2023-03-08T23:43:07.939Z,15.40
2023-03-08T23:45:35.458Z,14.23
2023-03-08T23:48:03.467Z,14.50
2023-03-08T23:50:31.000Z,12.83
2023-03-08T23:52:58.250Z,13.50
2023-03-08T23:55:25.666Z,13.97
2023-03-08T23:57:52.926Z,14.80
